Capitol Logistics 778


RKSI
Incheon International Airport
Seoul, KR
ZMUB
Chinggis Khaan International Airport
Ulan Bator, MN

Activity Log

Date Flight Route Aircraft Duration
No Flights Yet

Route Details

Aircraft Information
Primary: Boeing 767-300BDSF
Backup: Not Available
Route Data
Distance: 1066nm
Sched. Duration: 3h 50m
Avg. Duration: 0h 00m (-350m)
Times Flown: 0
Recm'd Route: NOPIK1Y NOPIK G597 DONVO A326 LADIX B339 UDA
Planned Altitude: 34,000ft
Origin Wx: RKSI 051600Z 24002KT CAVOK 17/14 Q1008 NOSIG
Dest. Wx: ZMUB 051600Z 27003MPS 9999 FEW033 SCT100 19/02 Q1001 NOSIG RMK QFE644.9 33 NT
Notes:

Financial History
Total Freight: 0lbs
Average Load: 0lbs/flt
Fuel Used: 0lbs
Avg. Fuel Used: 0lbs/flt
Fuel Expense: $0
Avg. Fuel Expense: $0
Avg. Fuel Cost: $0/lbs
Total Gross Income: $0
Pilot Pay: $0
Total Expenses: $0
Total Revenue: $0
Average Revenue: $0